Main page
METAR-TAF:

METAR-TAF

Airports :

Amman Civil Airport

Amman, Jordan

latitude: 31-59N, longitude: 035-59E, elevation: 767 m

Current weather observation

The report was made 52 minutes ago, at 23:00 UTC
Wind 3 kt from the Northwest
Temperature 21°C
Humidity 73%
Pressure 1011 hPa
Visibility: 6000 m

METAR: OJAM 092300Z 31003KT 6000 NSC 21/16 Q1011 NOSIG

Time: 02:52 (23:52 UTC)

Forecast

The report was made 52 minutes ago, at 23:00 UTC
Forecast valid from 10 at 00 UTC to 11 at 06 UTC
Wind 10 kt from the West
Visibility: 5000 m
haze
Probability 30% :
Temporary
from 10 at 02 UTC to 10 at 06 UTC
Visibility: 2000 m
haze
Probability 40% :
Temporary
from 10 at 12 UTC to 10 at 18 UTC
Wind 16 kt from the West
Visibility: 4000 m
Blowing dust

TAF: OJAM 092300Z 1000/1106 26010KT 5000 HZ NSC PROB30 TEMPO 1002/1006 2000 HZ PROB40 TEMPO 1012/1018 28016KT 4000 BLDU

Weather observations and forecasts of more than 4000 airports (METAR and TAF reports).

The available stations are represented by yellow and red dots on the map.

Hover mouse over dot to see the name of the station.

Then click to see weather observations and forecasts.

To change the map : click on the green buttons with a black cross to zoom in, on the green button with a dash to zoom out, or on the green arrows for adjacent maps.


METAR-TAF: